sensor_id;sensor_type;location;lat;lon;timestamp;pressure;altitude;pressure_sealevel;temperature;humidity
52469;BME280;38381;53.688;10.776;2023-02-04T00:00:28;102390.50;;;2.95;90.53
52469;BME280;38381;53.688;10.776;2023-02-04T00:05:29;102396.41;;;3.08;90.58
52469;BME280;38381;53.688;10.776;2023-02-04T00:10:30;102413.38;;;3.06;90.18
52469;BME280;38381;53.688;10.776;2023-02-04T00:15:30;102434.25;;;2.98;90.64
52469;BME280;38381;53.688;10.776;2023-02-04T00:20:31;102449.53;;;3.10;89.29
52469;BME280;38381;53.688;10.776;2023-02-04T00:25:31;102453.59;;;3.07;88.75
52469;BME280;38381;53.688;10.776;2023-02-04T00:30:32;102465.31;;;2.90;87.22
52469;BME280;38381;53.688;10.776;2023-02-04T00:35:32;102480.47;;;2.87;86.55
52469;BME280;38381;53.688;10.776;2023-02-04T00:40:33;102493.41;;;2.88;85.81
52469;BME280;38381;53.688;10.776;2023-02-04T00:45:33;102508.38;;;2.82;85.67
52469;BME280;38381;53.688;10.776;2023-02-04T00:50:34;102508.19;;;2.79;85.26
52469;BME280;38381;53.688;10.776;2023-02-04T00:55:38;102531.06;;;2.89;84.91
52469;BME280;38381;53.688;10.776;2023-02-04T01:00:39;102534.09;;;2.84;84.67
52469;BME280;38381;53.688;10.776;2023-02-04T01:05:39;102549.59;;;2.85;85.29
52469;BME280;38381;53.688;10.776;2023-02-04T01:10:40;102553.38;;;2.78;84.81
52469;BME280;38381;53.688;10.776;2023-02-04T01:15:41;102573.63;;;2.87;85.15
52469;BME280;38381;53.688;10.776;2023-02-04T01:20:41;102575.41;;;2.88;84.89
52469;BME280;38381;53.688;10.776;2023-02-04T01:25:41;102601.25;;;2.91;85.13
52469;BME280;38381;53.688;10.776;2023-02-04T01:30:42;102616.97;;;2.84;85.36
52469;BME280;38381;53.688;10.776;2023-02-04T01:35:42;102633.56;;;2.89;85.00
52469;BME280;38381;53.688;10.776;2023-02-04T01:40:43;102649.25;;;2.94;85.71
52469;BME280;38381;53.688;10.776;2023-02-04T01:45:44;102657.25;;;2.98;85.59
52469;BME280;38381;53.688;10.776;2023-02-04T01:50:47;102665.16;;;3.01;84.63
52469;BME280;38381;53.688;10.776;2023-02-04T01:55:48;102666.75;;;2.88;84.15
52469;BME280;38381;53.688;10.776;2023-02-04T02:00:49;102669.22;;;2.86;84.04
52469;BME280;38381;53.688;10.776;2023-02-04T02:05:51;102684.47;;;2.85;84.30
52469;BME280;38381;53.688;10.776;2023-02-04T02:10:52;102691.50;;;2.87;84.49
52469;BME280;38381;53.688;10.776;2023-02-04T02:15:53;102694.88;;;2.74;84.18
52469;BME280;38381;53.688;10.776;2023-02-04T02:20:54;102698.44;;;2.76;84.68
52469;BME280;38381;53.688;10.776;2023-02-04T02:25:55;102722.75;;;2.70;84.82
52469;BME280;38381;53.688;10.776;2023-02-04T02:30:56;102729.66;;;2.71;84.71
52469;BME280;38381;53.688;10.776;2023-02-04T02:35:56;102738.56;;;2.64;84.20
52469;BME280;38381;53.688;10.776;2023-02-04T02:40:57;102755.47;;;2.74;84.52
52469;BME280;38381;53.688;10.776;2023-02-04T02:45:59;102755.72;;;2.77;84.42
52469;BME280;38381;53.688;10.776;2023-02-04T02:51:00;102772.41;;;2.72;84.48
52469;BME280;38381;53.688;10.776;2023-02-04T02:56:01;102782.97;;;2.76;84.76
52469;BME280;38381;53.688;10.776;2023-02-04T03:01:05;102799.47;;;2.80;84.73
52469;BME280;38381;53.688;10.776;2023-02-04T03:06:10;102797.28;;;2.73;84.67
52469;BME280;38381;53.688;10.776;2023-02-04T03:11:12;102812.78;;;2.63;83.68
52469;BME280;38381;53.688;10.776;2023-02-04T03:16:12;102821.78;;;2.57;83.81
52469;BME280;38381;53.688;10.776;2023-02-04T03:21:13;102820.91;;;2.57;83.33
52469;BME280;38381;53.688;10.776;2023-02-04T03:26:13;102837.38;;;2.60;83.82
52469;BME280;38381;53.688;10.776;2023-02-04T03:31:14;102840.94;;;2.63;84.04
52469;BME280;38381;53.688;10.776;2023-02-04T03:36:14;102851.41;;;2.66;84.30
52469;BME280;38381;53.688;10.776;2023-02-04T03:41:15;102862.09;;;2.60;84.98
52469;BME280;38381;53.688;10.776;2023-02-04T03:46:15;102882.94;;;2.65;84.54
52469;BME280;38381;53.688;10.776;2023-02-04T03:51:15;102892.94;;;2.61;84.35
52469;BME280;38381;53.688;10.776;2023-02-04T03:56:16;102904.09;;;2.50;84.24
52469;BME280;38381;53.688;10.776;2023-02-04T04:01:16;102911.19;;;2.42;84.00
52469;BME280;38381;53.688;10.776;2023-02-04T04:06:17;102926.13;;;2.48;83.88
52469;BME280;38381;53.688;10.776;2023-02-04T04:11:17;102936.47;;;2.50;84.72
52469;BME280;38381;53.688;10.776;2023-02-04T04:16:18;102951.84;;;2.50;84.50
52469;BME280;38381;53.688;10.776;2023-02-04T04:21:19;102971.31;;;2.48;84.30
52469;BME280;38381;53.688;10.776;2023-02-04T04:26:20;103000.16;;;2.45;84.23
52469;BME280;38381;53.688;10.776;2023-02-04T04:31:20;103010.59;;;2.36;84.57
52469;BME280;38381;53.688;10.776;2023-02-04T04:36:21;103011.38;;;2.35;85.07
52469;BME280;38381;53.688;10.776;2023-02-04T04:41:21;103021.28;;;2.31;85.26
52469;BME280;38381;53.688;10.776;2023-02-04T04:46:22;103027.06;;;2.28;85.38
52469;BME280;38381;53.688;10.776;2023-02-04T04:51:23;103034.88;;;2.30;85.63
52469;BME280;38381;53.688;10.776;2023-02-04T04:56:23;103028.94;;;2.31;85.62
52469;BME280;38381;53.688;10.776;2023-02-04T05:01:23;103024.38;;;2.27;85.34
52469;BME280;38381;53.688;10.776;2023-02-04T05:06:24;103028.25;;;2.21;84.75
52469;BME280;38381;53.688;10.776;2023-02-04T05:11:25;103024.22;;;2.13;85.08
52469;BME280;38381;53.688;10.776;2023-02-04T05:16:25;103030.41;;;2.05;84.93
52469;BME280;38381;53.688;10.776;2023-02-04T05:21:26;103041.06;;;1.99;85.28
52469;BME280;38381;53.688;10.776;2023-02-04T05:26:26;103049.78;;;1.91;85.49
52469;BME280;38381;53.688;10.776;2023-02-04T05:31:27;103066.56;;;1.88;85.60
52469;BME280;38381;53.688;10.776;2023-02-04T05:36:27;103078.03;;;1.71;85.49
52469;BME280;38381;53.688;10.776;2023-02-04T05:41:28;103093.13;;;1.68;86.09
52469;BME280;38381;53.688;10.776;2023-02-04T05:46:28;103094.81;;;1.57;86.28
52469;BME280;38381;53.688;10.776;2023-02-04T05:51:29;103114.66;;;1.49;86.22
52469;BME280;38381;53.688;10.776;2023-02-04T05:56:29;103123.63;;;1.44;86.51
52469;BME280;38381;53.688;10.776;2023-02-04T06:01:30;103136.03;;;1.39;86.98
52469;BME280;38381;53.688;10.776;2023-02-04T06:06:30;103140.13;;;1.37;86.58
52469;BME280;38381;53.688;10.776;2023-02-04T06:11:30;103157.75;;;1.34;87.56
52469;BME280;38381;53.688;10.776;2023-02-04T06:16:31;103166.97;;;1.32;88.02
52469;BME280;38381;53.688;10.776;2023-02-04T06:21:31;103183.09;;;1.31;88.22
52469;BME280;38381;53.688;10.776;2023-02-04T06:26:32;103181.66;;;1.25;87.57
52469;BME280;38381;53.688;10.776;2023-02-04T06:31:32;103183.84;;;1.20;87.80
52469;BME280;38381;53.688;10.776;2023-02-04T06:36:32;103190.25;;;1.15;87.65
52469;BME280;38381;53.688;10.776;2023-02-04T06:41:33;103198.16;;;1.08;87.09
52469;BME280;38381;53.688;10.776;2023-02-04T06:46:33;103203.38;;;0.99;86.74
52469;BME280;38381;53.688;10.776;2023-02-04T06:51:35;103215.25;;;0.88;87.02
52469;BME280;38381;53.688;10.776;2023-02-04T06:56:35;103231.09;;;0.84;86.65
52469;BME280;38381;53.688;10.776;2023-02-04T07:01:36;103235.53;;;0.76;86.45
52469;BME280;38381;53.688;10.776;2023-02-04T07:06:36;103252.00;;;0.70;86.54
52469;BME280;38381;53.688;10.776;2023-02-04T07:11:36;103254.00;;;0.64;87.78
52469;BME280;38381;53.688;10.776;2023-02-04T07:16:37;103261.38;;;0.60;87.54
52469;BME280;38381;53.688;10.776;2023-02-04T07:21:37;103261.00;;;0.56;88.00
52469;BME280;38381;53.688;10.776;2023-02-04T07:26:37;103268.13;;;0.50;88.45
52469;BME280;38381;53.688;10.776;2023-02-04T07:31:38;103267.97;;;0.48;89.07
52469;BME280;38381;53.688;10.776;2023-02-04T07:36:39;103281.22;;;0.44;89.22
52469;BME280;38381;53.688;10.776;2023-02-04T07:41:39;103293.50;;;0.48;89.63
52469;BME280;38381;53.688;10.776;2023-02-04T07:46:39;103307.69;;;0.55;89.71
52469;BME280;38381;53.688;10.776;2023-02-04T07:51:40;103323.47;;;0.59;90.29
52469;BME280;38381;53.688;10.776;2023-02-04T07:56:40;103323.47;;;0.59;90.16
52469;BME280;38381;53.688;10.776;2023-02-04T08:01:40;103338.41;;;0.65;90.30
52469;BME280;38381;53.688;10.776;2023-02-04T08:06:41;103350.56;;;0.68;90.38
52469;BME280;38381;53.688;10.776;2023-02-04T08:11:41;103356.97;;;0.73;90.16
52469;BME280;38381;53.688;10.776;2023-02-04T08:16:42;103357.50;;;0.79;90.43
52469;BME280;38381;53.688;10.776;2023-02-04T08:21:42;103363.97;;;0.94;90.61
52469;BME280;38381;53.688;10.776;2023-02-04T08:26:43;103359.53;;;1.12;91.17
52469;BME280;38381;53.688;10.776;2023-02-04T08:31:43;103368.41;;;1.26;90.67
52469;BME280;38381;53.688;10.776;2023-02-04T08:36:44;103368.44;;;1.36;90.55
52469;BME280;38381;53.688;10.776;2023-02-04T08:41:44;103363.84;;;1.43;90.58
52469;BME280;38381;53.688;10.776;2023-02-04T08:46:45;103367.97;;;1.61;91.71
52469;BME280;38381;53.688;10.776;2023-02-04T08:51:45;103368.84;;;1.61;90.50
52469;BME280;38381;53.688;10.776;2023-02-04T08:56:46;103381.13;;;1.66;89.74
52469;BME280;38381;53.688;10.776;2023-02-04T09:01:46;103394.47;;;1.92;90.70
52469;BME280;38381;53.688;10.776;2023-02-04T09:06:49;103411.50;;;2.22;91.37
52469;BME280;38381;53.688;10.776;2023-02-04T09:11:50;103407.88;;;2.51;90.92
52469;BME280;38381;53.688;10.776;2023-02-04T09:16:50;103419.94;;;2.63;89.40
52469;BME280;38381;53.688;10.776;2023-02-04T09:21:54;103410.44;;;2.61;86.48
52469;BME280;38381;53.688;10.776;2023-02-04T09:26:54;103412.59;;;2.67;86.58
52469;BME280;38381;53.688;10.776;2023-02-04T09:31:54;103427.97;;;2.77;86.22
52469;BME280;38381;53.688;10.776;2023-02-04T09:36:55;103434.94;;;3.00;85.25
52469;BME280;38381;53.688;10.776;2023-02-04T09:41:57;103430.47;;;2.98;84.01
52469;BME280;38381;53.688;10.776;2023-02-04T09:46:59;103434.44;;;2.94;82.11
52469;BME280;38381;53.688;10.776;2023-02-04T09:52:00;103437.38;;;2.99;81.24
52469;BME280;38381;53.688;10.776;2023-02-04T09:57:00;103438.28;;;2.99;80.41
52469;BME280;38381;53.688;10.776;2023-02-04T10:02:01;103452.84;;;3.11;80.16
52469;BME280;38381;53.688;10.776;2023-02-04T10:07:02;103455.53;;;3.12;80.56
52469;BME280;38381;53.688;10.776;2023-02-04T10:12:03;103452.72;;;3.09;79.03
52469;BME280;38381;53.688;10.776;2023-02-04T10:17:03;103456.34;;;3.33;80.37
52469;BME280;38381;53.688;10.776;2023-02-04T10:22:14;103459.00;;;3.45;78.47
52469;BME280;38381;53.688;10.776;2023-02-04T10:27:15;103466.88;;;3.58;77.98
52469;BME280;38381;53.688;10.776;2023-02-04T10:32:28;103468.75;;;3.71;77.58
52469;BME280;38381;53.688;10.776;2023-02-04T10:37:29;103463.72;;;3.73;75.39
52469;BME280;38381;53.688;10.776;2023-02-04T10:42:31;103478.22;;;3.72;75.73
52469;BME280;38381;53.688;10.776;2023-02-04T10:47:31;103481.63;;;3.83;75.68
52469;BME280;38381;53.688;10.776;2023-02-04T10:52:37;103483.41;;;4.06;75.37
52469;BME280;38381;53.688;10.776;2023-02-04T10:57:40;103485.03;;;4.28;75.05
52469;BME280;38381;53.688;10.776;2023-02-04T11:07:48;103485.50;;;4.34;71.60
52469;BME280;38381;53.688;10.776;2023-02-04T11:18:02;103485.00;;;4.50;72.14
52469;BME280;38381;53.688;10.776;2023-02-04T11:28:25;103473.59;;;4.46;71.33
52469;BME280;38381;53.688;10.776;2023-02-04T11:33:36;103480.75;;;4.50;68.41
52469;BME280;38381;53.688;10.776;2023-02-04T11:38:38;103483.91;;;4.58;69.06
52469;BME280;38381;53.688;10.776;2023-02-04T11:43:38;103467.69;;;4.71;70.81
52469;BME280;38381;53.688;10.776;2023-02-04T11:48:39;103478.22;;;4.74;70.10
52469;BME280;38381;53.688;10.776;2023-02-04T11:53:39;103477.69;;;4.78;69.48
52469;BME280;38381;53.688;10.776;2023-02-04T11:58:40;103480.00;;;4.75;69.00
52469;BME280;38381;53.688;10.776;2023-02-04T12:03:46;103476.66;;;4.99;70.32
52469;BME280;38381;53.688;10.776;2023-02-04T12:08:47;103481.34;;;4.93;68.51
52469;BME280;38381;53.688;10.776;2023-02-04T12:13:49;103489.06;;;5.05;66.64
52469;BME280;38381;53.688;10.776;2023-02-04T12:18:51;103485.38;;;5.25;66.92
52469;BME280;38381;53.688;10.776;2023-02-04T12:57:19;103526.78;;;5.04;68.42
52469;BME280;38381;53.688;10.776;2023-02-04T13:02:19;103521.97;;;5.21;67.81
52469;BME280;38381;53.688;10.776;2023-02-04T13:07:20;103529.56;;;5.31;66.80
52469;BME280;38381;53.688;10.776;2023-02-04T13:12:20;103544.31;;;5.10;65.54
52469;BME280;38381;53.688;10.776;2023-02-04T13:17:21;103537.91;;;4.81;65.60
52469;BME280;38381;53.688;10.776;2023-02-04T13:22:21;103548.94;;;4.69;65.62
52469;BME280;38381;53.688;10.776;2023-02-04T13:27:22;103551.88;;;4.39;65.64
52469;BME280;38381;53.688;10.776;2023-02-04T13:32:22;103548.06;;;4.34;65.96
52469;BME280;38381;53.688;10.776;2023-02-04T13:37:23;103543.22;;;4.49;66.53
52469;BME280;38381;53.688;10.776;2023-02-04T13:42:23;103559.91;;;4.66;67.66
52469;BME280;38381;53.688;10.776;2023-02-04T13:47:24;103562.59;;;4.34;66.04
52469;BME280;38381;53.688;10.776;2023-02-04T13:52:24;103553.25;;;4.46;67.31
52469;BME280;38381;53.688;10.776;2023-02-04T13:57:24;103556.22;;;4.29;66.75
52469;BME280;38381;53.688;10.776;2023-02-04T14:02:25;103558.53;;;4.26;64.97
52469;BME280;38381;53.688;10.776;2023-02-04T14:07:25;103555.88;;;4.36;65.52
52469;BME280;38381;53.688;10.776;2023-02-04T14:12:26;103561.03;;;4.36;66.13
52469;BME280;38381;53.688;10.776;2023-02-04T14:17:26;103557.16;;;4.41;66.15
52469;BME280;38381;53.688;10.776;2023-02-04T14:22:27;103561.03;;;4.36;65.18
52469;BME280;38381;53.688;10.776;2023-02-04T14:27:27;103562.97;;;4.16;65.78
52469;BME280;38381;53.688;10.776;2023-02-04T14:32:28;103561.56;;;4.10;65.12
52469;BME280;38381;53.688;10.776;2023-02-04T14:37:28;103562.22;;;4.07;64.82
52469;BME280;38381;53.688;10.776;2023-02-04T14:42:28;103564.56;;;4.04;65.09
52469;BME280;38381;53.688;10.776;2023-02-04T14:47:32;103572.88;;;3.90;66.54
52469;BME280;38381;53.688;10.776;2023-02-04T14:52:32;103572.06;;;3.91;66.52
52469;BME280;38381;53.688;10.776;2023-02-04T14:57:33;103586.25;;;3.86;66.65
52469;BME280;38381;53.688;10.776;2023-02-04T15:02:33;103584.34;;;3.73;66.47
52469;BME280;38381;53.688;10.776;2023-02-04T15:07:34;103576.28;;;3.68;67.65
52469;BME280;38381;53.688;10.776;2023-02-04T15:12:34;103578.75;;;3.56;67.56
52469;BME280;38381;53.688;10.776;2023-02-04T15:17:35;103587.78;;;3.41;68.20
52469;BME280;38381;53.688;10.776;2023-02-04T15:22:35;103590.25;;;3.29;67.52
52469;BME280;38381;53.688;10.776;2023-02-04T15:27:35;103589.25;;;3.17;69.14
52469;BME280;38381;53.688;10.776;2023-02-04T15:32:36;103588.50;;;3.08;69.23
52469;BME280;38381;53.688;10.776;2023-02-04T15:37:36;103591.47;;;2.81;69.44
52469;BME280;38381;53.688;10.776;2023-02-04T15:42:37;103590.81;;;2.74;70.29
52469;BME280;38381;53.688;10.776;2023-02-04T15:47:37;103588.88;;;2.61;71.37
52469;BME280;38381;53.688;10.776;2023-02-04T15:52:38;103582.47;;;2.56;71.83
52469;BME280;38381;53.688;10.776;2023-02-04T15:57:38;103583.75;;;2.40;72.85
52469;BME280;38381;53.688;10.776;2023-02-04T16:02:39;103593.47;;;2.34;73.64
52469;BME280;38381;53.688;10.776;2023-02-04T16:07:39;103596.88;;;2.25;74.25
52469;BME280;38381;53.688;10.776;2023-02-04T16:12:39;103612.25;;;2.25;74.17
52469;BME280;38381;53.688;10.776;2023-02-04T16:17:40;103617.59;;;2.07;75.40
52469;BME280;38381;53.688;10.776;2023-02-04T16:22:40;103618.63;;;2.09;74.95
52469;BME280;38381;53.688;10.776;2023-02-04T16:27:41;103615.78;;;2.06;75.64
52469;BME280;38381;53.688;10.776;2023-02-04T16:32:41;103623.41;;;1.96;75.44
52469;BME280;38381;53.688;10.776;2023-02-04T16:37:41;103618.53;;;1.89;76.33
52469;BME280;38381;53.688;10.776;2023-02-04T16:42:42;103626.28;;;1.80;76.57
52469;BME280;38381;53.688;10.776;2023-02-04T16:47:42;103633.56;;;1.75;76.85
52469;BME280;38381;53.688;10.776;2023-02-04T16:52:43;103628.78;;;1.70;76.55
52469;BME280;38381;53.688;10.776;2023-02-04T16:57:43;103627.09;;;1.60;76.65
52469;BME280;38381;53.688;10.776;2023-02-04T17:02:43;103635.44;;;1.49;77.13
52469;BME280;38381;53.688;10.776;2023-02-04T17:07:44;103642.09;;;1.47;77.34
52469;BME280;38381;53.688;10.776;2023-02-04T17:12:44;103648.47;;;1.42;77.58
52469;BME280;38381;53.688;10.776;2023-02-04T17:17:45;103644.56;;;1.36;77.79
52469;BME280;38381;53.688;10.776;2023-02-04T17:22:45;103642.34;;;1.31;77.55
52469;BME280;38381;53.688;10.776;2023-02-04T17:27:46;103651.00;;;1.23;78.04
52469;BME280;38381;53.688;10.776;2023-02-04T17:32:49;103647.88;;;1.16;77.49
52469;BME280;38381;53.688;10.776;2023-02-04T17:37:49;103644.91;;;1.12;78.01
52469;BME280;38381;53.688;10.776;2023-02-04T17:42:50;103658.72;;;1.14;78.09
52469;BME280;38381;53.688;10.776;2023-02-04T17:47:50;103654.09;;;1.10;78.71
52469;BME280;38381;53.688;10.776;2023-02-04T17:52:51;103656.38;;;1.07;78.84
52469;BME280;38381;53.688;10.776;2023-02-04T17:57:52;103651.88;;;1.04;78.53
52469;BME280;38381;53.688;10.776;2023-02-04T18:02:52;103655.91;;;1.11;78.32
52469;BME280;38381;53.688;10.776;2023-02-04T18:08:16;103649.94;;;1.02;78.76
52469;BME280;38381;53.688;10.776;2023-02-04T18:13:38;103653.13;;;0.99;78.70
52469;BME280;38381;53.688;10.776;2023-02-04T18:18:39;103656.00;;;0.93;78.62
52469;BME280;38381;53.688;10.776;2023-02-04T18:23:40;103653.44;;;0.93;78.89
52469;BME280;38381;53.688;10.776;2023-02-04T18:28:43;103663.81;;;0.95;78.77
52469;BME280;38381;53.688;10.776;2023-02-04T18:33:45;103669.66;;;0.94;79.61
52469;BME280;38381;53.688;10.776;2023-02-04T18:38:45;103672.84;;;0.91;78.96
52469;BME280;38381;53.688;10.776;2023-02-04T18:43:48;103670.50;;;0.84;79.08
52469;BME280;38381;53.688;10.776;2023-02-04T18:48:57;103668.81;;;0.85;78.73
52469;BME280;38381;53.688;10.776;2023-02-04T18:54:02;103677.28;;;0.75;80.26
52469;BME280;38381;53.688;10.776;2023-02-04T18:59:17;103674.47;;;0.72;80.67
52469;BME280;38381;53.688;10.776;2023-02-04T19:04:24;103668.16;;;0.68;80.14
52469;BME280;38381;53.688;10.776;2023-02-04T19:09:27;103674.03;;;0.58;80.43
52469;BME280;38381;53.688;10.776;2023-02-04T19:14:35;103674.19;;;0.60;79.00
52469;BME280;38381;53.688;10.776;2023-02-04T19:19:39;103680.84;;;0.49;79.94
52469;BME280;38381;53.688;10.776;2023-02-04T19:24:39;103680.28;;;0.43;80.26
52469;BME280;38381;53.688;10.776;2023-02-04T19:29:41;103684.19;;;0.39;79.85
52469;BME280;38381;53.688;10.776;2023-02-04T19:34:41;103677.09;;;0.46;79.64
52469;BME280;38381;53.688;10.776;2023-02-04T19:39:41;103677.03;;;0.27;80.29
52469;BME280;38381;53.688;10.776;2023-02-04T19:44:42;103679.41;;;0.25;80.05
52469;BME280;38381;53.688;10.776;2023-02-04T19:49:44;103680.25;;;-0.02;80.57
52469;BME280;38381;53.688;10.776;2023-02-04T19:54:45;103670.59;;;-0.05;81.15
52469;BME280;38381;53.688;10.776;2023-02-04T19:59:45;103658.66;;;-0.14;81.29
52469;BME280;38381;53.688;10.776;2023-02-04T20:04:48;103665.84;;;-0.28;81.71
52469;BME280;38381;53.688;10.776;2023-02-04T20:10:20;103665.53;;;-0.39;80.99
52469;BME280;38381;53.688;10.776;2023-02-04T20:15:22;103661.94;;;-0.50;81.44
52469;BME280;38381;53.688;10.776;2023-02-04T20:20:28;103659.25;;;-0.52;81.18
52469;BME280;38381;53.688;10.776;2023-02-04T20:30:38;103660.00;;;-0.53;81.99
52469;BME280;38381;53.688;10.776;2023-02-04T20:40:39;103657.75;;;-0.50;82.04
52469;BME280;38381;53.688;10.776;2023-02-04T20:45:48;103659.25;;;-0.61;81.85
52469;BME280;38381;53.688;10.776;2023-02-04T20:50:51;103652.31;;;-0.70;82.84
52469;BME280;38381;53.688;10.776;2023-02-04T20:55:57;103643.94;;;-0.61;82.16
52469;BME280;38381;53.688;10.776;2023-02-04T21:06:24;103643.03;;;-0.87;81.93
52469;BME280;38381;53.688;10.776;2023-02-04T21:11:25;103643.78;;;-0.71;81.25
52469;BME280;38381;53.688;10.776;2023-02-04T21:16:25;103638.41;;;-0.74;81.05
52469;BME280;38381;53.688;10.776;2023-02-04T21:21:26;103638.84;;;-0.61;81.43
52469;BME280;38381;53.688;10.776;2023-02-04T21:26:26;103644.69;;;-0.79;81.12
52469;BME280;38381;53.688;10.776;2023-02-04T21:31:27;103640.78;;;-0.84;81.11
52469;BME280;38381;53.688;10.776;2023-02-04T21:36:27;103630.72;;;-1.09;82.93
52469;BME280;38381;53.688;10.776;2023-02-04T21:41:27;103629.50;;;-1.12;82.90
52469;BME280;38381;53.688;10.776;2023-02-04T21:46:28;103631.88;;;-1.14;83.31
52469;BME280;38381;53.688;10.776;2023-02-04T21:51:28;103638.97;;;-1.03;83.15
52469;BME280;38381;53.688;10.776;2023-02-04T21:56:29;103635.63;;;-1.19;83.05
52469;BME280;38381;53.688;10.776;2023-02-04T22:01:29;103640.84;;;-1.17;83.41
52469;BME280;38381;53.688;10.776;2023-02-04T22:06:29;103642.66;;;-1.25;83.01
52469;BME280;38381;53.688;10.776;2023-02-04T22:11:30;103651.97;;;-1.17;82.93
52469;BME280;38381;53.688;10.776;2023-02-04T22:16:30;103652.75;;;-1.43;83.68
52469;BME280;38381;53.688;10.776;2023-02-04T22:21:30;103638.09;;;-1.45;84.12
52469;BME280;38381;53.688;10.776;2023-02-04T22:26:33;103632.47;;;-1.58;84.12
52469;BME280;38381;53.688;10.776;2023-02-04T22:31:34;103637.72;;;-1.57;84.65
52469;BME280;38381;53.688;10.776;2023-02-04T22:36:34;103645.06;;;-1.60;84.19
52469;BME280;38381;53.688;10.776;2023-02-04T22:41:35;103634.56;;;-1.63;83.69
52469;BME280;38381;53.688;10.776;2023-02-04T22:46:35;103653.59;;;-1.59;83.18
52469;BME280;38381;53.688;10.776;2023-02-04T22:51:35;103659.22;;;-1.71;83.55
52469;BME280;38381;53.688;10.776;2023-02-04T22:56:36;103657.53;;;-1.79;83.72
52469;BME280;38381;53.688;10.776;2023-02-04T23:01:36;103655.47;;;-1.74;83.96
52469;BME280;38381;53.688;10.776;2023-02-04T23:06:36;103658.72;;;-1.84;83.92
52469;BME280;38381;53.688;10.776;2023-02-04T23:11:37;103668.88;;;-1.84;83.98
52469;BME280;38381;53.688;10.776;2023-02-04T23:16:37;103667.66;;;-1.88;84.13
52469;BME280;38381;53.688;10.776;2023-02-04T23:21:38;103661.88;;;-2.03;84.15
52469;BME280;38381;53.688;10.776;2023-02-04T23:26:38;103664.09;;;-2.06;84.46
52469;BME280;38381;53.688;10.776;2023-02-04T23:31:39;103650.09;;;-2.18;85.43
52469;BME280;38381;53.688;10.776;2023-02-04T23:36:39;103646.03;;;-2.25;85.41
52469;BME280;38381;53.688;10.776;2023-02-04T23:41:39;103638.41;;;-2.25;85.68
52469;BME280;38381;53.688;10.776;2023-02-04T23:46:40;103651.22;;;-2.32;85.85
52469;BME280;38381;53.688;10.776;2023-02-04T23:51:40;103647.25;;;-2.21;85.46
52469;BME280;38381;53.688;10.776;2023-02-04T23:56:41;103650.22;;;-2.25;85.18
